Time;durP1;ratioP1;P1;durP2;ratioP2;P2;SDS_P1;SDS_P2;PMS_P1;PMS_P2;Temp;Humidity;BMP_temperature;BMP_pressure;BME280_temperature;BME280_humidity;BME280_pressure;Samples;Min_cycle;Max_cycle;Signal;HPM_P1;HPM_P2
2022/09/18 00:00:20;;;;;;;2.83;1.00;;;;;;;23.66;48.56;98437.19;2089919;27;20127;-50
2022/09/18 00:01:24;;;;;;;4.97;1.00;;;;;;;23.66;48.58;98442.59;2095751;28;20054;-50
2022/09/18 00:02:25;;;;;;;4.97;1.48;;;;;;;23.66;48.46;98437.19;2093384;28;20054;-53
2022/09/18 00:03:28;;;;;;;2.08;0.70;;;;;;;23.67;48.57;98438.00;2094778;27;20058;-53
2022/09/18 00:04:29;;;;;;;1.13;0.75;;;;;;;23.66;48.57;98434.47;2093190;28;20052;-50
2022/09/18 00:05:31;;;;;;;2.63;1.20;;;;;;;23.67;48.53;98429.88;2094948;28;20110;-52
2022/09/18 00:06:34;;;;;;;1.13;0.60;;;;;;;23.66;48.58;98431.78;2097263;27;20051;-50
2022/09/18 00:07:36;;;;;;;2.30;1.60;;;;;;;23.66;48.71;98436.38;2094780;28;21047;-52
2022/09/18 00:08:37;;;;;;;1.52;0.70;;;;;;;23.67;48.40;98436.09;2088856;28;20058;-53
2022/09/18 00:09:39;;;;;;;2.78;1.10;;;;;;;23.67;48.34;98436.09;2089232;27;20137;-51
2022/09/18 00:10:41;;;;;;;2.78;1.00;;;;;;;23.67;48.47;98436.09;2093726;28;20047;-53
2022/09/18 00:11:45;;;;;;;2.92;0.80;;;;;;;23.66;48.49;98431.78;2092188;27;20050;-51
2022/09/18 00:12:46;;;;;;;4.07;1.00;;;;;;;23.65;48.58;98432.81;2094873;28;20064;-50
2022/09/18 00:13:48;;;;;;;6.22;1.00;;;;;;;23.66;48.68;98437.19;2093599;27;20666;-50
2022/09/18 00:14:50;;;;;;;0.77;0.65;;;;;;;23.67;48.57;98432.59;2094794;27;20127;-48
2022/09/18 00:15:55;;;;;;;4.18;0.70;;;;;;;23.66;48.50;98434.47;2092935;27;20048;-49
2022/09/18 00:16:57;;;;;;;5.30;1.33;;;;;;;23.64;48.40;98428.47;2091936;28;20048;-53
2022/09/18 00:17:58;;;;;;;2.05;1.27;;;;;;;23.65;48.61;98432.81;2090715;28;20047;-50
2022/09/18 00:19:00;;;;;;;2.28;0.70;;;;;;;23.64;48.78;98433.88;2094646;28;20868;-49
2022/09/18 00:20:01;;;;;;;4.43;1.33;;;;;;;23.64;48.66;98434.72;2095167;27;20051;-52
2022/09/18 00:21:05;;;;;;;1.88;1.10;;;;;;;23.65;48.82;98427.41;2092843;28;20055;-53
2022/09/18 00:22:06;;;;;;;3.67;0.63;;;;;;;23.65;48.76;98421.97;2098751;27;20161;-51
2022/09/18 00:23:07;;;;;;;3.22;1.83;;;;;;;23.65;48.65;98424.69;2093301;27;20100;-50
2022/09/18 00:24:09;;;;;;;1.33;0.80;;;;;;;23.64;48.57;98423.88;2092802;27;20875;-53
2022/09/18 00:25:10;;;;;;;2.05;1.10;;;;;;;23.63;48.83;98430.38;2087268;27;20052;-52
2022/09/18 00:26:13;;;;;;;4.10;0.63;;;;;;;23.65;48.65;98430.09;2095660;27;20044;-49
2022/09/18 00:27:14;;;;;;;2.20;1.08;;;;;;;23.64;48.75;98429.28;2092666;27;20594;-51
2022/09/18 00:28:16;;;;;;;2.25;1.10;;;;;;;23.66;48.56;98436.38;2093023;27;20140;-52
2022/09/18 00:29:17;;;;;;;1.52;0.88;;;;;;;23.65;48.50;98430.09;2093582;28;20067;-49
2022/09/18 00:30:20;;;;;;;0.95;0.70;;;;;;;23.65;48.68;98424.69;2093286;27;20180;-52
2022/09/18 00:31:24;;;;;;;0.93;0.75;;;;;;;23.64;48.25;98428.47;2094060;28;20107;-50
2022/09/18 00:32:26;;;;;;;2.53;0.80;;;;;;;23.63;48.62;98432.25;2093769;28;20039;-48
2022/09/18 00:33:26;;;;;;;2.92;1.13;;;;;;;23.62;48.53;98434.16;2092483;28;20137;-48
2022/09/18 00:34:28;;;;;;;2.33;0.70;;;;;;;23.62;48.48;98430.59;2090944;27;20742;-51
2022/09/18 00:35:29;;;;;;;3.60;1.02;;;;;;;23.61;48.40;98434.38;2092478;28;20059;-49
2022/09/18 00:36:31;;;;;;;2.63;1.38;;;;;;;23.63;48.37;98432.25;2100643;27;20055;-49
2022/09/18 00:37:32;;;;;;;2.47;0.90;;;;;;;23.64;48.50;98436.59;2097768;28;20591;-49
2022/09/18 00:38:35;;;;;;;2.85;0.80;;;;;;;23.63;48.54;98432.25;2091985;27;20055;-48
2022/09/18 00:39:35;;;;;;;2.08;0.80;;;;;;;23.63;48.68;98434.97;2094459;27;20052;-51
2022/09/18 00:40:38;;;;;;;2.33;0.90;;;;;;;23.62;48.51;98431.44;2094379;27;20044;-51
2022/09/18 00:41:40;;;;;;;3.92;0.70;;;;;;;23.62;48.48;98433.31;2099332;27;20118;-51
2022/09/18 00:42:42;;;;;;;1.42;0.93;;;;;;;23.62;48.47;98426.03;2099342;28;20120;-51
2022/09/18 00:43:42;;;;;;;2.35;0.80;;;;;;;23.61;48.67;98427.06;2096289;28;20092;-49
2022/09/18 00:44:45;;;;;;;0.68;0.60;;;;;;;23.62;48.31;98430.59;2095268;27;20728;-50
2022/09/18 00:45:52;;;;;;;1.30;0.70;;;;;;;23.61;48.62;98424.38;2096017;28;20604;-53
2022/09/18 00:46:57;;;;;;;1.23;0.70;;;;;;;23.59;48.54;98429.19;2095449;28;20138;-51
2022/09/18 00:47:59;;;;;;;2.08;1.10;;;;;;;23.60;48.49;98428.16;2094225;28;20048;-48
2022/09/18 00:49:09;;;;;;;1.67;0.85;;;;;;;23.60;48.35;98422.72;2095461;28;20794;-48
2022/09/18 00:50:13;;;;;;;1.92;0.60;;;;;;;23.58;48.46;98426.75;2095812;27;20048;-49
2022/09/18 00:51:17;;;;;;;3.15;0.52;;;;;;;23.58;48.56;98422.13;2094612;28;20054;-49
2022/09/18 00:52:21;;;;;;;1.98;0.70;;;;;;;23.59;48.43;98422.94;2094310;27;20538;-48
2022/09/18 00:53:23;;;;;;;1.17;0.63;;;;;;;23.57;48.46;98428.63;2099814;28;20071;-48
2022/09/18 00:54:29;;;;;;;1.63;0.80;;;;;;;23.60;48.33;98425.44;2094800;28;20382;-49
2022/09/18 00:55:33;;;;;;;2.10;1.00;;;;;;;23.60;48.31;98427.31;2097497;28;20052;-48
2022/09/18 00:56:34;;;;;;;5.18;1.27;;;;;;;23.59;48.42;98425.66;2102537;28;20055;-48
2022/09/18 00:57:40;;;;;;;2.75;1.38;;;;;;;23.60;48.34;98422.72;2094362;27;20050;-48
2022/09/18 00:58:41;;;;;;;2.45;0.73;;;;;;;23.60;48.42;98424.63;2093322;28;20054;-49
2022/09/18 00:59:46;;;;;;;3.78;0.93;;;;;;;23.60;48.83;98430.84;2091782;27;20058;-48
2022/09/18 01:00:48;;;;;;;1.90;1.15;;;;;;;23.60;48.55;98427.31;2092425;27;20052;-51
2022/09/18 01:01:50;;;;;;;1.55;0.68;;;;;;;23.60;48.53;98424.63;2092122;27;20047;-48
2022/09/18 01:02:51;;;;;;;4.13;1.25;;;;;;;23.61;48.31;98426.25;2086473;28;20055;-47
2022/09/18 01:03:53;;;;;;;3.60;0.70;;;;;;;23.61;48.50;98423.53;2086325;27;20079;-48
2022/09/18 01:04:55;;;;;;;0.70;0.60;;;;;;;23.60;48.57;98430.03;2098481;28;20055;-49
2022/09/18 01:06:08;;;;;;;2.08;0.82;;;;;;;23.60;48.64;98411.09;2100288;27;20506;-49
2022/09/18 01:07:19;;;;;;;1.85;0.82;;;;;;;23.57;48.66;98425.09;2100676;28;20052;-49
2022/09/18 01:08:34;;;;;;;2.67;0.75;;;;;;;23.57;48.52;98416.97;2098170;28;20789;-49
2022/09/18 01:09:49;;;;;;;2.60;0.73;;;;;;;23.54;48.82;98426.41;2100163;28;20078;-49
2022/09/18 01:11:11;;;;;;;9.90;1.35;;;;;;;23.53;48.70;98421.22;2101377;28;20063;-49
2022/09/18 01:12:21;;;;;;;3.08;0.82;;;;;;;23.54;48.58;98429.13;2101377;28;20044;-50
2022/09/18 01:13:33;;;;;;;3.00;0.80;;;;;;;23.54;48.74;98422.84;2099134;28;20044;-51
2022/09/18 01:14:40;;;;;;;4.03;1.33;;;;;;;23.55;48.75;98429.94;2097391;27;20562;-49
2022/09/18 01:15:51;;;;;;;1.63;1.00;;;;;;;23.55;48.64;98429.94;2098489;27;20058;-48
2022/09/18 01:16:57;;;;;;;3.08;1.17;;;;;;;23.55;48.61;98427.22;2090464;28;20036;-48
2022/09/18 01:18:06;;;;;;;2.58;0.70;;;;;;;23.55;48.90;98429.94;2097080;28;20058;-51
2022/09/18 01:19:24;;;;;;;3.00;1.13;;;;;;;23.54;48.97;98431.81;2097470;28;20050;-48
2022/09/18 01:20:40;;;;;;;2.83;0.88;;;;;;;23.54;48.89;98422.84;2093337;28;20123;-50
2022/09/18 01:21:47;;;;;;;4.30;0.77;;;;;;;23.54;48.93;98422.84;2096135;28;20048;-54
2022/09/18 01:23:08;;;;;;;3.15;1.15;;;;;;;23.55;48.69;98429.94;2096810;28;20061;-51
2022/09/18 01:24:32;;;;;;;2.08;0.75;;;;;;;23.51;49.16;98428.75;2093876;28;20051;-49
2022/09/18 01:25:42;;;;;;;1.77;1.15;;;;;;;23.50;49.38;98432.53;2095561;28;20047;-48
2022/09/18 01:26:53;;;;;;;2.05;1.10;;;;;;;23.52;49.16;98427.72;2089506;28;20072;-48
2022/09/18 01:28:14;;;;;;;0.90;0.52;;;;;;;23.51;49.23;98431.47;2095740;28;20123;-48
2022/09/18 01:29:22;;;;;;;2.08;1.23;;;;;;;23.51;49.32;98432.28;2096850;28;20052;-52
2022/09/18 01:30:24;;;;;;;3.63;0.95;;;;;;;23.52;49.23;98435.81;2096904;28;20055;-48
2022/09/18 01:31:30;;;;;;;3.03;0.55;;;;;;;23.53;49.15;98437.47;2092801;28;20078;-49
2022/09/18 01:32:40;;;;;;;3.20;1.45;;;;;;;23.53;49.10;98437.47;2090284;28;20082;-49
2022/09/18 01:33:49;;;;;;;0.82;0.43;;;;;;;23.53;49.13;98438.28;2093127;28;20597;-52
2022/09/18 01:34:58;;;;;;;2.28;0.73;;;;;;;23.53;49.16;98437.47;2096926;28;20044;-49
2022/09/18 01:36:03;;;;;;;2.15;0.68;;;;;;;23.54;49.22;98439.94;2091956;28;20055;-52
2022/09/18 01:37:12;;;;;;;1.25;0.57;;;;;;;23.55;49.03;98435.34;2091140;28;21135;-49
2022/09/18 01:38:18;;;;;;;1.92;0.60;;;;;;;23.52;49.33;98425.81;2098518;28;20043;-53
2022/09/18 01:39:27;;;;;;;1.98;1.00;;;;;;;23.53;49.22;98426.63;2095366;28;20093;-48
2022/09/18 01:40:32;;;;;;;0.93;0.70;;;;;;;23.53;49.31;98429.34;2088938;28;20063;-49
2022/09/18 01:41:38;;;;;;;1.55;0.60;;;;;;;23.52;49.40;98430.41;2089397;28;20056;-49
2022/09/18 01:42:41;;;;;;;1.55;0.60;;;;;;;23.53;49.50;98434.75;2097160;28;20047;-52
2022/09/18 01:43:48;;;;;;;3.03;0.75;;;;;;;23.53;49.36;98432.03;2089231;28;20052;-52
2022/09/18 01:44:52;;;;;;;1.98;0.63;;;;;;;23.52;49.28;98439.34;2091710;27;20047;-52
2022/09/18 01:45:58;;;;;;;1.73;1.20;;;;;;;23.53;49.30;98440.16;2093347;28;20713;-49
2022/09/18 01:47:02;;;;;;;3.35;1.80;;;;;;;23.52;49.31;98439.34;2096002;28;20051;-49
2022/09/18 01:48:06;;;;;;;0.65;0.45;;;;;;;23.53;49.56;98440.16;2087510;28;20774;-52
2022/09/18 01:49:11;;;;;;;2.75;0.88;;;;;;;23.52;49.29;98430.41;2095407;28;20059;-53
2022/09/18 01:50:15;;;;;;;1.38;0.80;;;;;;;23.53;49.53;98438.28;2096654;27;20058;-50
2022/09/18 01:51:19;;;;;;;3.47;0.82;;;;;;;23.53;49.54;98437.47;2096219;28;20433;-54
2022/09/18 01:52:26;;;;;;;2.45;0.45;;;;;;;23.53;49.17;98432.03;2097786;28;20112;-51
2022/09/18 01:53:32;;;;;;;3.65;0.98;;;;;;;23.52;49.47;98435.81;2095306;28;20362;-54
2022/09/18 01:54:38;;;;;;;1.90;0.50;;;;;;;23.51;49.41;98436.88;2099361;28;20044;-51
2022/09/18 01:55:40;;;;;;;1.10;0.60;;;;;;;23.50;49.51;98437.94;2091634;28;20092;-50
2022/09/18 01:56:45;;;;;;;0.40;0.40;;;;;;;23.50;49.33;98437.94;2095086;28;20078;-55
2022/09/18 01:57:52;;;;;;;1.73;0.40;;;;;;;23.51;49.23;98436.88;2092930;28;20052;-54
2022/09/18 01:58:59;;;;;;;3.72;0.68;;;;;;;23.49;49.26;98442.53;2098407;28;20113;-51
2022/09/18 02:00:03;;;;;;;3.05;0.95;;;;;;;23.52;49.32;98442.06;2091504;28;20055;-49
2022/09/18 02:01:11;;;;;;;1.27;0.55;;;;;;;23.51;49.66;98442.28;2095146;28;20174;-50
2022/09/18 02:02:19;;;;;;;3.58;1.00;;;;;;;23.52;49.22;98435.81;2093081;28;20062;-53
2022/09/18 02:03:25;;;;;;;3.70;1.00;;;;;;;23.51;49.55;98434.16;2101333;28;20051;-51
2022/09/18 02:04:30;;;;;;;2.00;0.65;;;;;;;23.51;49.43;98434.97;2084042;28;20056;-53
2022/09/18 02:05:37;;;;;;;1.52;1.25;;;;;;;23.52;49.44;98435.81;2092746;28;20188;-51
2022/09/18 02:06:43;;;;;;;4.97;1.08;;;;;;;23.50;49.36;98432.53;2090943;27;20077;-51
2022/09/18 02:07:51;;;;;;;3.03;0.60;;;;;;;23.51;49.42;98440.41;2085002;28;20177;-53
2022/09/18 02:08:54;;;;;;;4.75;0.60;;;;;;;23.52;49.26;98452.88;2090520;28;20574;-50
2022/09/18 02:09:57;;;;;;;8.25;1.25;;;;;;;23.52;49.41;98435.81;2093981;28;20052;-51
2022/09/18 02:11:02;;;;;;;1.48;0.50;;;;;;;23.52;49.25;98443.94;2093803;28;20051;-52
2022/09/18 02:12:07;;;;;;;4.07;0.70;;;;;;;23.51;49.38;98445.00;2093313;28;20063;-51
2022/09/18 02:13:12;;;;;;;3.08;0.50;;;;;;;23.50;49.34;98443.34;2091671;28;20099;-53
2022/09/18 02:14:20;;;;;;;3.00;1.00;;;;;;;23.51;49.23;98450.41;2094613;28;20104;-47
2022/09/18 02:15:23;;;;;;;2.33;0.80;;;;;;;23.50;49.27;98448.78;2096145;28;20129;-53
2022/09/18 02:16:30;;;;;;;3.25;0.80;;;;;;;23.49;49.34;98453.38;2095288;28;20999;-50
2022/09/18 02:17:34;;;;;;;2.22;0.70;;;;;;;23.48;49.34;98449.00;2095256;28;20539;-51
2022/09/18 02:18:43;;;;;;;1.50;0.40;;;;;;;23.49;49.24;98458.78;2097185;28;20504;-54
2022/09/18 02:19:51;;;;;;;3.70;0.47;;;;;;;23.47;49.11;98441.94;2088111;28;20095;-51
2022/09/18 02:20:54;;;;;;;1.10;0.65;;;;;;;23.47;49.29;98450.06;2088905;28;20052;-50
2022/09/18 02:21:58;;;;;;;1.38;0.50;;;;;;;23.50;49.09;98446.06;2094387;27;20043;-49
2022/09/18 02:23:04;;;;;;;1.67;0.80;;;;;;;23.50;49.01;98454.19;2099617;27;20054;-51
2022/09/18 02:24:09;;;;;;;1.45;0.60;;;;;;;23.50;49.01;98448.78;2092347;28;20059;-50
2022/09/18 02:25:14;;;;;;;2.53;0.85;;;;;;;23.48;49.02;98450.88;2091276;28;20058;-54
2022/09/18 02:26:18;;;;;;;1.42;0.73;;;;;;;23.49;48.87;98453.38;2096220;27;20144;-54
2022/09/18 02:27:21;;;;;;;1.42;0.75;;;;;;;23.47;49.08;98455.47;2095299;27;20562;-50
2022/09/18 02:28:25;;;;;;;1.08;0.47;;;;;;;23.48;48.97;98454.41;2094603;28;20052;-52
2022/09/18 02:29:29;;;;;;;0.40;0.30;;;;;;;23.47;49.01;98455.47;2099466;27;20071;-52
2022/09/18 02:30:31;;;;;;;1.60;0.70;;;;;;;23.47;49.11;98457.38;2098186;28;20051;-50
2022/09/18 02:31:33;;;;;;;2.88;1.13;;;;;;;23.48;49.26;98461.72;2096249;28;20059;-53
2022/09/18 02:32:35;;;;;;;2.05;0.50;;;;;;;23.48;49.19;98459.00;2099343;28;20048;-47
2022/09/18 02:33:37;;;;;;;2.97;0.88;;;;;;;23.47;49.07;98460.09;2098139;27;20242;-51
2022/09/18 02:34:38;;;;;;;3.03;0.70;;;;;;;23.47;49.06;98463.59;2096065;27;20058;-50
2022/09/18 02:35:46;;;;;;;5.68;1.20;;;;;;;23.46;49.19;98461.97;2095333;28;20437;-53
2022/09/18 02:37:01;;;;;;;4.22;0.70;;;;;;;23.44;49.04;98460.56;2095669;28;20040;-46
2022/09/18 02:38:12;;;;;;;1.95;0.38;;;;;;;23.44;49.25;98468.69;2090394;28;20068;-49
2022/09/18 02:39:25;;;;;;;1.15;0.70;;;;;;;23.41;49.33;98464.56;2088872;28;20127;-54
2022/09/18 02:40:45;;;;;;;3.55;0.63;;;;;;;23.38;49.28;98463.16;2084903;28;20064;-50
2022/09/18 02:41:54;;;;;;;4.95;1.35;;;;;;;23.39;49.07;98462.09;2092333;28;20081;-51
2022/09/18 02:43:12;;;;;;;0.82;0.40;;;;;;;23.38;49.23;98463.16;2094633;28;20182;-51
2022/09/18 02:44:18;;;;;;;2.42;0.75;;;;;;;23.38;49.24;98460.44;2092733;28;20537;-51
2022/09/18 02:45:31;;;;;;;5.53;0.63;;;;;;;23.40;49.07;98465.63;2093514;28;20097;-49
2022/09/18 02:46:41;;;;;;;0.98;0.50;;;;;;;23.38;49.02;98459.63;2095810;28;20740;-53
2022/09/18 02:47:57;;;;;;;3.95;0.80;;;;;;;23.39;49.04;98463.97;2085742;28;20047;-49
2022/09/18 02:49:09;;;;;;;3.67;1.08;;;;;;;23.39;49.06;98462.09;2097769;28;20052;-53
2022/09/18 02:50:16;;;;;;;1.92;0.50;;;;;;;23.38;49.15;98457.75;2098634;28;20052;-52
2022/09/18 02:51:29;;;;;;;2.28;0.50;;;;;;;23.39;49.02;98453.16;2100716;28;20051;-51
2022/09/18 02:52:36;;;;;;;3.67;0.80;;;;;;;23.40;48.72;98460.19;2093531;28;20052;-53
2022/09/18 02:53:44;;;;;;;3.72;0.70;;;;;;;23.38;48.90;98457.75;2099211;28;20501;-49
2022/09/18 02:54:52;;;;;;;5.90;0.50;;;;;;;23.38;49.06;98455.03;2095996;28;20966;-52
2022/09/18 02:55:59;;;;;;;1.48;0.45;;;;;;;23.39;48.83;98464.78;2098299;28;20063;-53
2022/09/18 02:57:05;;;;;;;1.23;0.50;;;;;;;23.39;48.93;98456.69;2097150;28;20093;-49
2022/09/18 02:58:12;;;;;;;1.00;0.50;;;;;;;23.39;48.75;98461.28;2094446;28;20448;-50
2022/09/18 02:59:20;;;;;;;4.47;0.57;;;;;;;23.39;48.79;98453.16;2097355;28;20048;-46
2022/09/18 03:00:24;;;;;;;0.75;0.65;;;;;;;23.38;48.97;98455.03;2094681;28;20048;-51
2022/09/18 03:01:27;;;;;;;1.13;0.73;;;;;;;23.38;49.09;98460.44;2098357;28;21146;-52
2022/09/18 03:02:28;;;;;;;3.33;0.60;;;;;;;23.38;49.01;98451.53;2092746;28;20127;-47
2022/09/18 03:03:32;;;;;;;2.97;1.30;;;;;;;23.38;48.86;98459.63;2100642;28;20047;-53
2022/09/18 03:04:33;;;;;;;3.42;0.70;;;;;;;23.38;48.82;98459.63;2093485;28;20052;-52
2022/09/18 03:05:35;;;;;;;1.83;0.75;;;;;;;23.37;48.79;98464.22;2094134;28;20151;-50
2022/09/18 03:06:36;;;;;;;2.28;0.60;;;;;;;23.37;49.03;98461.53;2095240;27;20047;-53
2022/09/18 03:07:38;;;;;;;2.08;0.95;;;;;;;23.38;48.78;98467.75;2101464;28;20040;-53
2022/09/18 03:08:38;;;;;;;6.88;1.08;;;;;;;23.38;48.77;98474.00;2092744;28;20736;-51
2022/09/18 03:09:40;;;;;;;1.40;0.55;;;;;;;23.38;48.70;98471.28;2096341;27;20208;-51
2022/09/18 03:10:43;;;;;;;4.95;0.60;;;;;;;23.38;48.65;98482.09;2098402;28;20128;-53
2022/09/18 03:11:45;;;;;;;5.80;0.60;;;;;;;23.38;48.63;98476.69;2091021;27;20505;-50
2022/09/18 03:12:46;;;;;;;1.83;0.50;;;;;;;23.38;48.86;98479.41;2094883;27;20051;-53
2022/09/18 03:13:48;;;;;;;1.27;0.40;;;;;;;23.35;48.82;98477.16;2090786;28;20052;-54
2022/09/18 03:14:49;;;;;;;1.55;0.75;;;;;;;23.35;48.91;98485.28;2097995;27;20052;-51
2022/09/18 03:15:52;;;;;;;1.08;0.60;;;;;;;23.35;48.82;98482.59;2094259;27;20052;-50
2022/09/18 03:16:52;;;;;;;6.00;0.63;;;;;;;23.37;48.87;98488.59;2095904;28;20126;-53
2022/09/18 03:17:54;;;;;;;2.92;1.00;;;;;;;23.35;48.83;98489.88;2096129;27;20063;-51
2022/09/18 03:18:56;;;;;;;1.38;0.55;;;;;;;23.35;48.70;98485.28;2095697;28;20051;-52
2022/09/18 03:19:57;;;;;;;2.45;0.50;;;;;;;23.35;48.58;98485.28;2086066;28;20418;-49
2022/09/18 03:20:58;;;;;;;1.58;0.80;;;;;;;23.34;48.72;98491.75;2092963;28;21054;-50
2022/09/18 03:22:00;;;;;;;0.60;0.30;;;;;;;23.35;48.61;98490.72;2092169;28;20125;-53
2022/09/18 03:23:01;;;;;;;0.98;0.40;;;;;;;23.34;48.79;98491.75;2095670;28;20206;-52
2022/09/18 03:24:02;;;;;;;0.90;0.80;;;;;;;23.33;48.70;98502.81;2089272;28;20537;-49
2022/09/18 03:25:04;;;;;;;1.95;1.00;;;;;;;23.32;48.68;98488.47;2091921;27;20066;-49
2022/09/18 03:26:05;;;;;;;2.22;0.65;;;;;;;23.33;48.71;98492.81;2097201;27;20129;-53
2022/09/18 03:27:06;;;;;;;1.58;0.60;;;;;;;23.33;48.70;98500.94;2095878;28;20051;-51
2022/09/18 03:28:08;;;;;;;0.65;0.45;;;;;;;23.33;48.58;98500.13;2093718;28;20129;-52
2022/09/18 03:29:09;;;;;;;0.93;0.70;;;;;;;23.33;48.68;98503.66;2100100;28;21378;-55
2022/09/18 03:30:11;;;;;;;1.60;0.50;;;;;;;23.33;48.74;98500.94;2094988;27;20058;-53
2022/09/18 03:31:14;;;;;;;3.28;0.68;;;;;;;23.32;48.54;98496.59;2092689;27;20044;-51
2022/09/18 03:32:15;;;;;;;2.05;0.82;;;;;;;23.31;48.68;98494.94;2091058;28;20059;-54
2022/09/18 03:33:16;;;;;;;1.98;0.85;;;;;;;23.31;48.51;98500.34;2095049;28;20047;-52
2022/09/18 03:34:18;;;;;;;2.22;0.40;;;;;;;23.32;48.47;98499.31;2093306;28;20056;-54
2022/09/18 03:35:19;;;;;;;3.42;0.47;;;;;;;23.32;48.58;98498.50;2100772;28;20498;-51
2022/09/18 03:36:21;;;;;;;2.60;0.90;;;;;;;23.33;48.61;98502.81;2092658;27;20135;-50
2022/09/18 03:37:23;;;;;;;3.13;0.88;;;;;;;23.34;48.72;98494.44;2095711;27;20052;-47
2022/09/18 03:38:24;;;;;;;7.75;0.93;;;;;;;23.35;48.74;98501.53;2094622;27;20048;-48
2022/09/18 03:39:25;;;;;;;2.70;0.57;;;;;;;23.34;48.61;98504.47;2097120;28;20170;-48
2022/09/18 03:40:28;;;;;;;1.50;0.68;;;;;;;23.34;48.38;98502.56;2097039;27;20063;-48
2022/09/18 03:41:28;;;;;;;3.95;0.95;;;;;;;23.35;48.79;98506.13;2100254;28;20043;-49
2022/09/18 03:42:30;;;;;;;6.28;0.70;;;;;;;23.33;48.67;98503.66;2100061;27;20999;-48
2022/09/18 03:43:31;;;;;;;5.05;1.00;;;;;;;23.34;48.72;98510.69;2099148;28;20116;-46
2022/09/18 03:44:33;;;;;;;1.65;0.60;;;;;;;23.34;48.56;98507.97;2099939;27;20116;-47
2022/09/18 03:45:33;;;;;;;1.23;0.50;;;;;;;23.34;48.54;98509.88;2096697;27;20335;-48
2022/09/18 03:46:36;;;;;;;1.65;0.40;;;;;;;23.34;48.59;98505.28;2097448;27;20055;-45
2022/09/18 03:47:39;;;;;;;3.70;0.60;;;;;;;23.34;48.69;98515.28;2102280;28;20180;-46
2022/09/18 03:48:40;;;;;;;5.40;0.60;;;;;;;23.32;48.56;98506.59;2100188;27;20052;-46
2022/09/18 03:49:41;;;;;;;3.85;0.85;;;;;;;23.33;48.70;98509.06;2101511;27;20111;-47
2022/09/18 03:50:43;;;;;;;4.57;0.65;;;;;;;23.33;48.52;98498.22;2097862;27;20042;-49
2022/09/18 03:51:43;;;;;;;1.98;0.95;;;;;;;23.33;48.39;98500.94;2102435;27;20047;-48
2022/09/18 03:52:47;;;;;;;4.32;0.90;;;;;;;23.33;48.46;98505.53;2099140;28;20051;-47
2022/09/18 03:53:49;;;;;;;5.25;1.02;;;;;;;23.33;48.33;98509.06;2099618;27;20578;-45
2022/09/18 03:54:53;;;;;;;1.80;0.60;;;;;;;23.33;48.44;98509.06;2095867;28;20059;-50
2022/09/18 03:55:54;;;;;;;5.57;1.00;;;;;;;23.33;48.34;98510.94;2095333;27;20059;-46
2022/09/18 03:56:56;;;;;;;6.40;0.77;;;;;;;23.33;48.30;98498.22;2100730;27;20197;-50
2022/09/18 03:57:56;;;;;;;2.40;1.30;;;;;;;23.33;48.23;98503.66;2098055;27;20055;-48
2022/09/18 03:58:58;;;;;;;1.95;0.70;;;;;;;23.34;48.05;98505.28;2099102;27;20044;-48
2022/09/18 03:59:59;;;;;;;1.83;0.82;;;;;;;23.33;48.30;98503.66;2102174;28;20059;-49
2022/09/18 04:01:01;;;;;;;1.95;0.38;;;;;;;23.32;48.36;98506.59;2100796;27;20051;-47
2022/09/18 04:02:03;;;;;;;2.17;0.80;;;;;;;23.33;48.27;98502.81;2100154;27;20152;-46
2022/09/18 04:03:05;;;;;;;2.72;0.47;;;;;;;23.32;48.27;98512.00;2100033;27;20048;-47
2022/09/18 04:04:05;;;;;;;4.22;0.52;;;;;;;23.32;48.42;98512.84;2099755;27;21428;-48
2022/09/18 04:05:08;;;;;;;2.08;0.68;;;;;;;23.32;48.33;98510.13;2098351;27;20078;-46
2022/09/18 04:06:09;;;;;;;1.42;0.45;;;;;;;23.31;48.31;98505.75;2095690;27;20051;-48
2022/09/18 04:07:10;;;;;;;2.58;0.50;;;;;;;23.28;48.48;98514.34;2098027;27;20043;-47
2022/09/18 04:08:11;;;;;;;6.70;1.10;;;;;;;23.29;48.46;98515.16;2097598;27;20055;-48
2022/09/18 04:09:13;;;;;;;6.97;1.80;;;;;;;23.28;48.42;98510.81;2100465;27;20456;-48
2022/09/18 04:10:14;;;;;;;2.92;0.43;;;;;;;23.27;48.47;98511.91;2096948;28;20511;-48
2022/09/18 04:11:16;;;;;;;1.95;0.63;;;;;;;23.29;48.50;98512.47;2100045;28;20048;-50
2022/09/18 04:12:16;;;;;;;2.25;0.50;;;;;;;23.29;48.30;98515.16;2097370;28;20047;-48
2022/09/18 04:13:18;;;;;;;2.17;0.90;;;;;;;23.27;48.45;98520.84;2101320;27;20044;-46
2022/09/18 04:14:19;;;;;;;1.83;0.47;;;;;;;23.28;48.45;98517.06;2097923;27;20160;-47
2022/09/18 04:15:20;;;;;;;1.65;0.60;;;;;;;23.28;48.26;98517.06;2099535;28;20116;-47
2022/09/18 04:16:21;;;;;;;1.30;0.45;;;;;;;23.27;48.30;98518.13;2096109;27;20072;-50
2022/09/18 04:17:24;;;;;;;2.70;0.52;;;;;;;23.27;48.22;98520.84;2098514;27;22345;-48
2022/09/18 04:18:25;;;;;;;1.70;0.35;;;;;;;23.27;48.43;98520.03;2099679;28;20513;-49
2022/09/18 04:19:27;;;;;;;2.20;0.68;;;;;;;23.26;48.31;98519.16;2096648;28;20051;-49
2022/09/18 04:20:27;;;;;;;1.63;0.57;;;;;;;23.27;48.27;98518.13;2096654;28;20043;-50
2022/09/18 04:21:30;;;;;;;1.75;0.32;;;;;;;23.27;48.18;98520.84;2100493;27;20058;-47
2022/09/18 04:22:31;;;;;;;0.93;0.60;;;;;;;23.26;48.33;98521.06;2098402;28;20044;-46
2022/09/18 04:23:32;;;;;;;3.15;0.40;;;;;;;23.27;48.25;98522.72;2100521;27;20846;-47
2022/09/18 04:24:34;;;;;;;1.48;0.50;;;;;;;23.26;48.31;98518.34;2098976;28;20887;-45
2022/09/18 04:25:37;;;;;;;2.92;0.98;;;;;;;23.26;48.18;98524.56;2097699;27;20098;-47
2022/09/18 04:26:38;;;;;;;1.80;0.47;;;;;;;23.25;48.31;98525.66;2097077;27;20070;-48
2022/09/18 04:27:40;;;;;;;1.48;0.40;;;;;;;23.25;48.24;98531.06;2100488;27;20057;-50
2022/09/18 04:28:40;;;;;;;1.50;0.77;;;;;;;23.26;48.48;98523.75;2099757;28;20052;-46
2022/09/18 04:29:42;;;;;;;1.73;0.60;;;;;;;23.27;48.17;98530.84;2091327;28;20051;-48
2022/09/18 04:30:45;;;;;;;1.48;0.50;;;;;;;23.26;48.31;98526.47;2093216;27;20126;-46
2022/09/18 04:31:46;;;;;;;2.55;0.80;;;;;;;23.26;48.26;98524.56;2092105;28;20674;-50
2022/09/18 04:32:48;;;;;;;2.08;0.57;;;;;;;23.25;48.38;98524.84;2092038;28;20104;-51
2022/09/18 04:33:50;;;;;;;0.60;0.50;;;;;;;23.25;48.29;98522.94;2094222;28;20147;-47
2022/09/18 04:34:51;;;;;;;0.98;0.40;;;;;;;23.24;48.32;98521.31;2093260;28;20048;-47
2022/09/18 04:35:53;;;;;;;0.63;0.32;;;;;;;23.24;48.32;98520.50;2091666;27;20055;-46
2022/09/18 04:36:53;;;;;;;1.88;0.47;;;;;;;23.23;48.43;98526.94;2093981;28;20055;-48
2022/09/18 04:37:55;;;;;;;0.95;0.43;;;;;;;23.24;48.38;98531.31;2090776;27;20071;-47
2022/09/18 04:38:58;;;;;;;5.57;0.70;;;;;;;23.24;48.46;98524.03;2093417;27;20099;-49
2022/09/18 04:40:00;;;;;;;2.55;0.50;;;;;;;23.23;48.39;98529.66;2092698;28;20078;-48
2022/09/18 04:41:01;;;;;;;2.25;0.43;;;;;;;23.22;48.46;98531.53;2093789;27;20055;-46
2022/09/18 04:42:03;;;;;;;1.25;0.45;;;;;;;23.24;48.38;98531.31;2093046;27;20055;-47
2022/09/18 04:43:04;;;;;;;1.02;0.50;;;;;;;23.23;48.47;98530.47;2092072;27;20128;-47
2022/09/18 04:44:06;;;;;;;2.83;0.57;;;;;;;23.23;48.44;98524.25;2092121;27;20048;-49
2022/09/18 04:45:08;;;;;;;1.30;0.43;;;;;;;23.23;48.61;98530.47;2092526;28;20043;-47
2022/09/18 04:46:10;;;;;;;0.35;0.30;;;;;;;23.21;48.45;98527.19;2093277;28;20040;-49
2022/09/18 04:47:10;;;;;;;0.68;0.30;;;;;;;23.24;48.38;98531.31;2095781;28;21217;-46
2022/09/18 04:48:14;;;;;;;1.02;0.40;;;;;;;23.24;48.29;98532.13;2093604;28;20047;-51
2022/09/18 04:49:14;;;;;;;0.68;0.43;;;;;;;23.22;48.20;98526.13;2093440;27;20062;-50
2022/09/18 04:50:16;;;;;;;0.90;0.35;;;;;;;23.21;48.40;98532.59;2091094;27;20116;-47
2022/09/18 04:51:17;;;;;;;1.35;0.47;;;;;;;23.22;48.33;98531.53;2094751;27;20052;-47
2022/09/18 04:52:19;;;;;;;1.48;0.50;;;;;;;23.20;48.46;98533.66;2093080;27;20051;-50
2022/09/18 04:53:19;;;;;;;2.15;0.40;;;;;;;23.21;48.24;98538.03;2092037;27;20063;-45
2022/09/18 04:54:21;;;;;;;4.10;0.47;;;;;;;23.20;48.23;98537.19;2086296;27;20139;-49
2022/09/18 04:55:22;;;;;;;0.50;0.38;;;;;;;23.21;48.36;98538.03;2089283;28;20054;-46
2022/09/18 04:56:24;;;;;;;5.03;0.88;;;;;;;23.20;48.27;98539.06;2097703;28;20043;-48
2022/09/18 04:57:24;;;;;;;0.90;0.30;;;;;;;23.22;48.28;98541.53;2093431;27;20040;-48
2022/09/18 04:58:26;;;;;;;3.38;0.60;;;;;;;23.22;48.50;98536.13;2096656;28;20099;-49
2022/09/18 04:59:27;;;;;;;1.35;0.43;;;;;;;23.21;48.19;98535.31;2103076;27;20047;-48
2022/09/18 05:00:29;;;;;;;0.32;0.22;;;;;;;23.19;48.01;98535.53;2095603;27;20043;-46
2022/09/18 05:01:30;;;;;;;3.15;0.77;;;;;;;23.18;48.36;98533.09;2092026;28;20513;-48